createdAt,value
2019-02-16T00:00:44.853Z,99.90
2019-02-16T00:03:17.130Z,99.90
2019-02-16T00:05:49.299Z,99.90
2019-02-16T00:08:21.753Z,99.90
2019-02-16T00:10:54.013Z,99.90
2019-02-16T00:13:26.248Z,99.90
2019-02-16T00:15:58.433Z,99.90
2019-02-16T00:18:30.905Z,99.90
2019-02-16T00:21:04.247Z,99.90
2019-02-16T00:23:36.962Z,99.90
2019-02-16T00:26:09.176Z,99.90
2019-02-16T00:28:41.928Z,99.90
2019-02-16T00:31:14.304Z,99.90
2019-02-16T00:33:46.664Z,99.90
2019-02-16T00:36:18.838Z,99.90
2019-02-16T00:38:50.951Z,99.90
2019-02-16T00:41:23.249Z,99.90
2019-02-16T00:43:55.593Z,99.90
2019-02-16T00:46:27.699Z,99.90
2019-02-16T00:49:00.072Z,99.90
2019-02-16T00:51:32.635Z,99.90
2019-02-16T00:54:05.232Z,99.90
2019-02-16T00:56:37.397Z,99.90
2019-02-16T00:59:09.617Z,99.90
2019-02-16T01:01:41.699Z,99.90
2019-02-16T01:04:14.360Z,99.90
2019-02-16T01:06:46.580Z,99.90
2019-02-16T01:09:18.788Z,99.90
2019-02-16T01:11:51.134Z,99.90
2019-02-16T01:14:23.561Z,99.90
2019-02-16T01:16:55.876Z,99.90
2019-02-16T01:19:28.136Z,99.90
2019-02-16T01:22:00.414Z,99.90
2019-02-16T01:24:32.616Z,99.90
2019-02-16T01:27:04.711Z,99.90
2019-02-16T01:29:36.935Z,99.90
2019-02-16T01:32:09.204Z,99.90
2019-02-16T01:34:41.444Z,99.90
2019-02-16T01:37:13.693Z,99.90
2019-02-16T01:39:46.230Z,99.90
2019-02-16T01:42:18.564Z,99.90
2019-02-16T01:44:50.891Z,99.90
2019-02-16T01:47:22.980Z,99.90
2019-02-16T01:49:55.390Z,99.90
2019-02-16T01:52:27.543Z,99.90
2019-02-16T01:55:00.019Z,99.90
2019-02-16T01:57:32.580Z,99.90
2019-02-16T02:00:06.009Z,99.90
2019-02-16T02:02:38.723Z,99.90
2019-02-16T02:05:11.439Z,99.90
2019-02-16T02:07:43.717Z,99.90
2019-02-16T02:10:16.081Z,99.90
2019-02-16T02:12:48.384Z,99.90
2019-02-16T02:15:20.912Z,99.90
2019-02-16T02:17:53.085Z,99.90
2019-02-16T02:20:25.501Z,99.90
2019-02-16T02:22:57.904Z,99.90
2019-02-16T02:25:30.123Z,99.90
2019-02-16T02:28:02.287Z,99.90
2019-02-16T02:30:34.681Z,99.90
2019-02-16T02:33:06.892Z,99.90
2019-02-16T02:35:38.975Z,99.90
2019-02-16T02:38:11.061Z,99.90
2019-02-16T02:40:43.713Z,99.90
2019-02-16T02:43:15.866Z,99.90
2019-02-16T02:45:48.568Z,99.90
2019-02-16T02:48:20.870Z,99.90
2019-02-16T02:50:53.379Z,99.90
2019-02-16T02:53:31.119Z,99.90
2019-02-16T02:56:00.049Z,99.90
2019-02-16T02:58:32.474Z,99.90
2019-02-16T03:01:04.964Z,99.90
2019-02-16T03:03:37.073Z,99.90
2019-02-16T03:06:09.340Z,99.90
2019-02-16T03:08:41.740Z,99.90
2019-02-16T03:11:13.957Z,99.90
2019-02-16T03:13:46.173Z,99.90
2019-02-16T03:16:18.297Z,99.90
2019-02-16T03:18:50.619Z,99.90
2019-02-16T03:21:22.994Z,99.90
2019-02-16T03:23:55.435Z,99.90
2019-02-16T03:26:50.097Z,99.90
2019-02-16T03:29:51.433Z,99.90
2019-02-16T03:33:08.518Z,99.90
2019-02-16T03:36:31.890Z,99.90
2019-02-16T03:39:15.917Z,99.90
2019-02-16T03:41:48.083Z,99.90
2019-02-16T03:44:20.695Z,99.90
2019-02-16T03:46:52.881Z,99.90
2019-02-16T03:49:25.227Z,99.90
2019-02-16T03:51:57.709Z,99.90
2019-02-16T03:54:30.184Z,99.90
2019-02-16T03:57:02.565Z,99.90
2019-02-16T03:59:35.048Z,99.90
2019-02-16T04:02:07.302Z,99.90
2019-02-16T04:04:39.480Z,99.90
2019-02-16T04:07:11.664Z,99.90
2019-02-16T04:09:43.971Z,99.90
2019-02-16T04:12:16.204Z,99.90
2019-02-16T04:14:48.755Z,99.90
2019-02-16T04:17:20.903Z,99.90
2019-02-16T04:19:52.997Z,99.90
2019-02-16T04:22:25.432Z,99.90
2019-02-16T04:24:57.538Z,99.90
2019-02-16T04:27:29.754Z,99.90
2019-02-16T04:30:02.061Z,99.90
2019-02-16T04:32:34.292Z,99.90
2019-02-16T04:35:06.737Z,99.90
2019-02-16T04:37:39.064Z,99.90
2019-02-16T04:40:11.292Z,99.90
2019-02-16T04:42:44.002Z,99.90
2019-02-16T04:45:16.661Z,99.90
2019-02-16T04:47:49.020Z,99.90
2019-02-16T04:50:21.170Z,99.90
2019-02-16T04:52:53.585Z,99.90
2019-02-16T04:55:25.877Z,99.90
2019-02-16T04:57:58.201Z,99.90
2019-02-16T05:00:30.328Z,99.90
2019-02-16T05:03:02.423Z,99.90
2019-02-16T05:05:35.338Z,99.90
2019-02-16T05:08:07.459Z,99.90
2019-02-16T05:10:39.554Z,99.90
2019-02-16T05:13:11.908Z,99.90
2019-02-16T05:15:44.007Z,99.90
2019-02-16T05:18:16.531Z,99.90
2019-02-16T05:20:48.602Z,99.90
2019-02-16T05:23:20.713Z,99.90
2019-02-16T05:25:52.896Z,99.90
2019-02-16T05:28:25.542Z,99.90
2019-02-16T05:30:57.851Z,99.90
2019-02-16T05:33:30.263Z,99.90
2019-02-16T05:36:02.808Z,99.90
2019-02-16T05:38:34.948Z,99.90
2019-02-16T05:41:07.099Z,99.90
2019-02-16T05:43:39.436Z,99.90
2019-02-16T05:46:11.716Z,99.90
2019-02-16T05:48:44.113Z,99.90
2019-02-16T05:51:16.408Z,99.90
2019-02-16T05:53:48.967Z,99.90
2019-02-16T05:56:21.247Z,99.90
2019-02-16T06:01:25.863Z,99.90
2019-02-16T06:03:58.175Z,99.90
2019-02-16T06:06:30.463Z,99.90
2019-02-16T06:09:04.706Z,99.90
2019-02-16T06:11:37.005Z,99.90
2019-02-16T06:14:09.171Z,99.90
2019-02-16T06:16:41.290Z,99.90
2019-02-16T06:19:14.407Z,99.90
2019-02-16T06:21:46.621Z,99.90
2019-02-16T06:24:18.848Z,99.90
2019-02-16T06:26:50.943Z,99.90
2019-02-16T06:29:23.176Z,99.90
2019-02-16T06:31:55.366Z,99.90
2019-02-16T06:34:27.578Z,99.90
2019-02-16T06:37:01.681Z,99.90
2019-02-16T06:39:33.925Z,99.90
2019-02-16T06:42:06.218Z,99.90
2019-02-16T06:44:38.541Z,99.90
2019-02-16T06:47:10.907Z,99.90
2019-02-16T06:49:43.052Z,99.90
2019-02-16T06:52:15.394Z,99.90
2019-02-16T06:54:47.491Z,99.90
2019-02-16T06:57:30.394Z,99.90
2019-02-16T07:00:03.178Z,99.90
2019-02-16T07:02:35.306Z,99.90
2019-02-16T07:05:07.637Z,99.90
2019-02-16T07:07:39.984Z,99.90
2019-02-16T07:10:12.444Z,99.90
2019-02-16T07:12:44.899Z,99.90
2019-02-16T07:15:17.227Z,99.90
2019-02-16T07:17:59.990Z,99.90
2019-02-16T07:20:32.141Z,99.90
2019-02-16T07:23:04.234Z,99.90
2019-02-16T07:25:36.912Z,99.90
2019-02-16T07:28:09.102Z,99.90
2019-02-16T07:30:41.609Z,99.90
2019-02-16T07:33:14.140Z,99.90
2019-02-16T07:35:47.008Z,99.90
2019-02-16T07:38:19.317Z,99.90
2019-02-16T07:40:51.748Z,99.90
2019-02-16T07:43:43.480Z,99.90
2019-02-16T07:46:26.079Z,99.90
2019-02-16T07:51:49.492Z,99.90
2019-02-16T07:54:59.334Z,99.90
2019-02-16T07:57:44.384Z,99.90
2019-02-16T08:00:33.810Z,99.90
2019-02-16T08:03:25.757Z,99.90
2019-02-16T08:06:11.782Z,99.90
2019-02-16T08:08:57.987Z,99.90
2019-02-16T08:11:50.074Z,99.90
2019-02-16T08:14:31.347Z,99.90
2019-02-16T08:17:16.079Z,99.90
2019-02-16T08:20:10.784Z,99.90
2019-02-16T08:23:01.243Z,99.90
2019-02-16T08:25:48.040Z,99.90
2019-02-16T08:28:28.618Z,99.90
2019-02-16T08:31:26.784Z,99.90
2019-02-16T08:34:20.310Z,99.90
2019-02-16T08:37:27.025Z,99.90
2019-02-16T08:40:19.215Z,99.90
2019-02-16T08:43:23.274Z,99.90
2019-02-16T08:46:02.936Z,99.90
2019-02-16T08:48:43.988Z,99.80
2019-02-16T08:51:39.368Z,99.40
2019-02-16T08:54:27.569Z,99.40
2019-02-16T08:57:18.736Z,98.70
2019-02-16T09:00:09.349Z,99.00
2019-02-16T09:03:10.416Z,98.90
2019-02-16T09:05:58.145Z,99.30
2019-02-16T09:08:45.206Z,98.50
2019-02-16T09:11:37.665Z,98.00
2019-02-16T09:14:29.535Z,97.80
2019-02-16T09:17:11.060Z,97.70
2019-02-16T09:19:58.155Z,97.50
2019-02-16T09:22:35.973Z,97.00
2019-02-16T09:25:23.466Z,97.00
2019-02-16T09:28:15.512Z,96.50
2019-02-16T09:30:59.143Z,96.30
2019-02-16T09:33:44.956Z,96.00
2019-02-16T09:36:25.424Z,95.80
2019-02-16T09:39:09.101Z,95.90
2019-02-16T09:41:49.289Z,95.70
2019-02-16T09:44:47.222Z,95.20
2019-02-16T09:47:37.859Z,95.00
2019-02-16T09:50:30.240Z,95.50
2019-02-16T09:53:17.502Z,94.80
2019-02-16T09:56:05.967Z,94.40
2019-02-16T09:58:44.722Z,94.80
2019-02-16T10:01:36.946Z,94.90
2019-02-16T10:04:14.317Z,94.30
2019-02-16T10:06:59.313Z,94.40
2019-02-16T10:09:41.848Z,92.90
2019-02-16T10:12:28.155Z,92.80
2019-02-16T10:15:11.753Z,92.30
2019-02-16T10:17:58.078Z,92.00
2019-02-16T10:20:40.576Z,91.70
2019-02-16T10:23:38.160Z,91.50
2019-02-16T10:26:35.780Z,91.10
2019-02-16T10:29:26.367Z,90.80
2019-02-16T10:32:20.814Z,90.30
2019-02-16T10:35:13.749Z,90.60
2019-02-16T10:38:12.118Z,90.20
2019-02-16T10:41:07.026Z,90.60
2019-02-16T10:44:01.142Z,90.30
2019-02-16T10:47:07.553Z,89.70
2019-02-16T10:49:50.141Z,89.90
2019-02-16T10:52:47.550Z,87.90
2019-02-16T10:55:36.337Z,87.60
2019-02-16T10:58:16.921Z,88.00
2019-02-16T11:01:05.800Z,87.00
2019-02-16T11:03:55.129Z,85.10
2019-02-16T11:06:34.610Z,86.90
2019-02-16T11:09:16.716Z,86.30
2019-02-16T11:12:00.281Z,82.60
2019-02-16T11:15:07.361Z,83.40
2019-02-16T11:18:11.242Z,84.80
2019-02-16T11:21:21.203Z,85.90
2019-02-16T11:24:10.514Z,83.20
2019-02-16T11:26:55.183Z,83.10
2019-02-16T11:29:43.632Z,81.20
2019-02-16T11:32:35.523Z,80.30
2019-02-16T11:35:28.911Z,82.50
2019-02-16T11:38:20.910Z,82.40
2019-02-16T11:41:18.888Z,83.10
2019-02-16T11:43:55.819Z,83.40
2019-02-16T11:47:02.551Z,80.60
2019-02-16T11:49:45.574Z,79.10
2019-02-16T11:52:36.623Z,77.30
2019-02-16T11:55:25.372Z,71.60
2019-02-16T11:58:15.241Z,70.20
2019-02-16T12:01:13.399Z,70.30
2019-02-16T12:03:57.172Z,72.00
2019-02-16T12:06:47.730Z,70.40
2019-02-16T12:09:36.714Z,68.70
2019-02-16T12:12:23.230Z,69.80
2019-02-16T12:15:13.599Z,68.90
2019-02-16T12:18:05.514Z,65.80
2019-02-16T12:20:57.547Z,64.50
2019-02-16T12:23:49.932Z,63.50
2019-02-16T12:26:40.057Z,62.60
2019-02-16T12:29:29.971Z,60.30
2019-02-16T12:32:39.438Z,59.50
2019-02-16T12:35:30.056Z,59.50
2019-02-16T12:38:08.680Z,59.20
2019-02-16T12:40:47.917Z,59.70
2019-02-16T12:43:36.736Z,59.10
2019-02-16T12:46:15.692Z,59.40
2019-02-16T12:49:04.521Z,59.30
2019-02-16T12:51:48.341Z,59.00
2019-02-16T12:57:24.438Z,59.20
2019-02-16T13:00:24.886Z,58.00
2019-02-16T13:03:14.346Z,58.40
2019-02-16T13:06:06.678Z,57.10
2019-02-16T13:08:43.266Z,56.90
2019-02-16T13:11:21.776Z,56.70
2019-02-16T13:16:51.512Z,56.70
2019-02-16T13:19:43.452Z,57.00
2019-02-16T13:22:24.660Z,56.20
2019-02-16T13:25:02.932Z,55.50
2019-02-16T13:27:41.506Z,56.00
2019-02-16T13:30:42.685Z,56.70
2019-02-16T13:33:31.437Z,56.80
2019-02-16T13:36:32.252Z,56.90
2019-02-16T13:39:19.672Z,56.80
2019-02-16T13:41:59.534Z,56.40
2019-02-16T13:44:52.331Z,56.70
2019-02-16T13:47:31.903Z,56.50
2019-02-16T13:50:24.148Z,56.90
2019-02-16T13:53:17.507Z,56.80
2019-02-16T13:56:10.435Z,55.10
2019-02-16T13:58:49.445Z,54.50
2019-02-16T14:01:29.300Z,54.50
2019-02-16T14:04:28.144Z,54.40
2019-02-16T14:07:09.899Z,55.60
2019-02-16T14:10:11.217Z,55.10
2019-02-16T14:12:58.352Z,53.30
2019-02-16T14:16:05.612Z,53.40
2019-02-16T14:18:37.860Z,52.50
2019-02-16T14:21:09.959Z,53.10
2019-02-16T14:23:42.538Z,53.30
2019-02-16T14:26:14.623Z,53.80
2019-02-16T14:28:48.508Z,53.40
2019-02-16T14:31:28.199Z,53.50
2019-02-16T14:33:57.121Z,53.70
2019-02-16T14:36:29.485Z,53.70
2019-02-16T14:39:13.080Z,54.60
2019-02-16T14:41:45.595Z,54.50
2019-02-16T14:44:18.087Z,54.60
2019-02-16T14:46:50.402Z,54.80
2019-02-16T14:49:22.948Z,53.30
2019-02-16T14:51:55.460Z,53.00
2019-02-16T14:54:29.033Z,51.70
2019-02-16T14:57:01.321Z,52.00
2019-02-16T14:59:33.496Z,51.70
2019-02-16T15:02:05.853Z,52.10
2019-02-16T15:04:38.525Z,52.80
2019-02-16T15:07:10.981Z,53.10
2019-02-16T15:09:43.424Z,52.30
2019-02-16T15:12:16.234Z,51.70
2019-02-16T15:14:48.828Z,52.90
2019-02-16T15:17:21.061Z,53.20
2019-02-16T15:19:53.501Z,53.20
2019-02-16T15:22:25.757Z,54.40
2019-02-16T15:24:58.201Z,54.20
2019-02-16T15:27:30.684Z,54.50
2019-02-16T15:30:03.545Z,56.00
2019-02-16T15:32:35.633Z,57.90
2019-02-16T15:35:09.668Z,59.10
2019-02-16T15:37:42.074Z,59.70
2019-02-16T15:40:14.693Z,60.60
2019-02-16T15:42:46.915Z,61.60
2019-02-16T15:45:19.686Z,62.50
2019-02-16T15:47:53.942Z,63.40
2019-02-16T15:50:26.535Z,64.90
2019-02-16T15:52:59.230Z,66.40
2019-02-16T15:55:31.553Z,69.00
2019-02-16T15:58:03.727Z,69.20
2019-02-16T16:00:36.449Z,67.80
2019-02-16T16:03:08.891Z,69.00
2019-02-16T16:05:41.210Z,69.20
2019-02-16T16:08:38.967Z,69.90
2019-02-16T16:11:17.161Z,68.90
2019-02-16T16:14:06.601Z,69.00
2019-02-16T16:16:44.022Z,68.60
2019-02-16T16:19:22.044Z,68.70
2019-02-16T16:22:12.125Z,69.20
2019-02-16T16:25:06.922Z,70.70
2019-02-16T16:27:57.102Z,70.90
2019-02-16T16:30:36.316Z,71.30
2019-02-16T16:33:35.333Z,71.80
2019-02-16T16:36:14.477Z,73.20
2019-02-16T16:38:56.347Z,73.70
2019-02-16T16:41:50.959Z,76.10
2019-02-16T16:44:54.668Z,78.90
2019-02-16T16:47:49.516Z,79.30
2019-02-16T16:50:31.942Z,78.90
2019-02-16T16:53:18.951Z,78.40
2019-02-16T16:55:58.227Z,79.90
2019-02-16T16:58:48.818Z,79.80
2019-02-16T17:01:53.110Z,80.70
2019-02-16T17:04:56.564Z,81.90
2019-02-16T17:07:53.877Z,82.70
2019-02-16T17:10:45.747Z,84.20
2019-02-16T17:13:46.407Z,83.30
2019-02-16T17:16:36.190Z,85.70
2019-02-16T17:19:26.536Z,86.90
2019-02-16T17:22:21.542Z,87.80
2019-02-16T17:25:18.940Z,85.80
2019-02-16T17:28:14.403Z,86.60
2019-02-16T17:30:56.893Z,86.80
2019-02-16T17:33:57.545Z,87.00
2019-02-16T17:36:47.871Z,87.10
2019-02-16T17:39:40.131Z,87.50
2019-02-16T17:42:33.663Z,88.20
2019-02-16T17:45:26.129Z,89.20
2019-02-16T17:48:16.358Z,89.50
2019-02-16T17:51:10.821Z,90.00
2019-02-16T17:54:08.975Z,90.10
2019-02-16T17:56:53.796Z,90.50
2019-02-16T17:59:40.024Z,91.20
2019-02-16T18:02:32.930Z,90.40
2019-02-16T18:05:30.451Z,90.60
2019-02-16T18:08:13.495Z,90.70
2019-02-16T18:11:08.577Z,90.70
2019-02-16T18:14:05.871Z,90.90
2019-02-16T18:17:09.674Z,91.00
2019-02-16T18:19:50.484Z,91.50
2019-02-16T18:22:51.227Z,91.50
2019-02-16T18:25:32.621Z,91.90
2019-02-16T18:28:22.753Z,92.00
2019-02-16T18:31:32.741Z,91.90
2019-02-16T18:34:30.787Z,92.30
2019-02-16T18:37:21.183Z,92.50
2019-02-16T18:40:12.290Z,92.50
2019-02-16T18:43:10.241Z,92.40
2019-02-16T18:45:52.535Z,92.90
2019-02-16T18:48:44.530Z,92.50
2019-02-16T18:51:24.136Z,92.80
2019-02-16T18:54:20.884Z,93.10
2019-02-16T18:57:07.200Z,93.90
2019-02-16T18:59:57.671Z,93.10
2019-02-16T19:02:51.969Z,93.30
2019-02-16T19:05:34.157Z,93.20
2019-02-16T19:08:17.531Z,93.30
2019-02-16T19:11:15.584Z,92.70
2019-02-16T19:13:55.680Z,93.50
2019-02-16T19:16:50.728Z,93.20
2019-02-16T19:19:34.452Z,93.30
2019-02-16T19:22:18.988Z,93.20
2019-02-16T19:25:08.328Z,93.60
2019-02-16T19:27:51.904Z,94.90
2019-02-16T19:30:41.292Z,95.30
2019-02-16T19:33:39.217Z,95.60
2019-02-16T19:36:25.717Z,94.50
2019-02-16T19:39:20.774Z,93.20
2019-02-16T19:42:11.352Z,93.20
2019-02-16T19:45:01.437Z,93.80
2019-02-16T19:47:56.012Z,93.80
2019-02-16T19:50:53.295Z,94.00
2019-02-16T19:53:51.074Z,94.00
2019-02-16T19:56:45.976Z,93.70
2019-02-16T19:59:36.608Z,94.00
2019-02-16T20:02:26.858Z,93.80
2019-02-16T20:05:05.738Z,93.60
2019-02-16T20:08:00.313Z,93.80
2019-02-16T20:10:48.798Z,93.50
2019-02-16T20:13:32.702Z,93.70
2019-02-16T20:16:27.659Z,93.50
2019-02-16T20:19:18.261Z,93.50
2019-02-16T20:22:10.184Z,93.60
2019-02-16T20:25:04.817Z,93.50
2019-02-16T20:28:02.606Z,93.40
2019-02-16T20:30:53.158Z,93.60
2019-02-16T20:33:50.980Z,93.80
2019-02-16T20:36:31.526Z,94.10
2019-02-16T20:39:17.914Z,94.20
2019-02-16T20:42:12.771Z,94.40
2019-02-16T20:45:02.931Z,94.70
2019-02-16T20:47:57.725Z,94.90
2019-02-16T20:50:38.237Z,95.00
2019-02-16T20:53:28.172Z,95.20
2019-02-16T20:56:09.936Z,95.60
2019-02-16T20:59:04.864Z,95.80
2019-02-16T21:02:12.061Z,96.10
2019-02-16T21:04:57.010Z,97.00
2019-02-16T21:07:47.518Z,97.30
2019-02-16T21:10:29.228Z,97.30
2019-02-16T21:13:14.729Z,97.80
2019-02-16T21:16:04.654Z,97.90
2019-02-16T21:18:43.868Z,98.20
2019-02-16T21:21:48.083Z,97.90
2019-02-16T21:24:45.522Z,98.10
2019-02-16T21:27:35.011Z,98.00
2019-02-16T21:30:20.872Z,98.40
2019-02-16T21:33:03.510Z,98.30
2019-02-16T21:35:46.990Z,98.50
2019-02-16T21:38:37.136Z,98.70
2019-02-16T21:41:34.753Z,98.70
2019-02-16T21:47:24.058Z,99.80
2019-02-16T21:50:03.513Z,99.90
2019-02-16T21:52:54.709Z,99.90
2019-02-16T21:55:36.061Z,99.90
2019-02-16T21:58:17.172Z,99.80
2019-02-16T22:01:15.411Z,99.90
2019-02-16T22:04:16.000Z,99.90
2019-02-16T22:07:06.835Z,99.90
2019-02-16T22:09:56.169Z,99.90
2019-02-16T22:12:43.706Z,99.90
2019-02-16T22:15:16.140Z,99.90
2019-02-16T22:17:48.462Z,99.90
2019-02-16T22:20:20.590Z,99.90
2019-02-16T22:22:52.683Z,99.90
2019-02-16T22:25:25.027Z,99.90
2019-02-16T22:27:57.636Z,99.90
2019-02-16T22:30:30.137Z,99.90
2019-02-16T22:33:02.624Z,99.90
2019-02-16T22:35:34.777Z,99.90
2019-02-16T22:38:06.901Z,99.90
2019-02-16T22:40:39.185Z,99.90
2019-02-16T22:43:11.469Z,99.90
2019-02-16T22:45:43.751Z,99.90
2019-02-16T22:48:16.119Z,99.90
2019-02-16T22:50:48.621Z,99.90
2019-02-16T22:53:20.866Z,99.90
2019-02-16T22:55:53.168Z,99.90
2019-02-16T22:58:28.825Z,99.90
2019-02-16T23:00:59.807Z,99.90
2019-02-16T23:03:32.120Z,99.90
2019-02-16T23:06:04.468Z,99.90
2019-02-16T23:08:36.801Z,99.90
2019-02-16T23:11:09.906Z,99.90
2019-02-16T23:13:42.364Z,99.90
2019-02-16T23:16:14.825Z,99.90
2019-02-16T23:18:47.220Z,99.90
2019-02-16T23:21:19.784Z,99.90
2019-02-16T23:23:52.326Z,99.90
2019-02-16T23:26:25.148Z,99.90
2019-02-16T23:28:57.414Z,99.90
2019-02-16T23:31:29.746Z,99.90
2019-02-16T23:34:02.288Z,99.90
2019-02-16T23:36:34.516Z,99.90
2019-02-16T23:39:09.064Z,99.90
2019-02-16T23:41:41.269Z,99.90
2019-02-16T23:44:13.502Z,99.90
2019-02-16T23:46:45.714Z,99.90
2019-02-16T23:49:17.880Z,99.90
2019-02-16T23:51:50.215Z,99.90
2019-02-16T23:54:22.682Z,99.90
2019-02-16T23:56:54.798Z,99.90
2019-02-16T23:59:27.361Z,99.90
